Time;durP1;ratioP1;P1;durP2;ratioP2;P2;SDS_P1;SDS_P2;PMS_P1;PMS_P2;Temp;Humidity;BMP_temperature;BMP_pressure;BME280_temperature;BME280_humidity;BME280_pressure;Samples;Min_cycle;Max_cycle;Signal;HPM_P1;HPM_P2
2022/09/10 00:00:32;;;;;;;14.98;8.25;;;;;;;15.53;96.50;100822.34;5007668;28;20049;-75
2022/09/10 00:02:57;;;;;;;18.63;7.93;;;;;;;15.50;96.44;100814.50;4996719;28;20022;-76
2022/09/10 00:05:22;;;;;;;10.00;5.63;;;;;;;15.44;96.30;100818.84;5008265;28;20026;-76
2022/09/10 00:07:48;;;;;;;9.55;5.30;;;;;;;15.40;96.39;100815.69;5007182;28;20041;-76
2022/09/10 00:10:13;;;;;;;14.68;6.93;;;;;;;15.53;96.39;100827.78;5008703;28;20024;-76
2022/09/10 00:12:40;;;;;;;17.17;8.77;;;;;;;15.33;97.11;100812.03;5007432;28;20037;-76
2022/09/10 00:15:06;;;;;;;18.25;8.77;;;;;;;15.32;97.79;100814.91;5008152;28;20014;-77
2022/09/10 00:17:32;;;;;;;10.05;6.40;;;;;;;15.23;98.27;100814.19;5009394;28;20045;-77
2022/09/10 00:20:00;;;;;;;11.38;6.07;;;;;;;15.23;98.06;100808.72;5007597;28;20033;-77
2022/09/10 00:22:26;;;;;;;10.20;6.97;;;;;;;15.28;97.68;100809.03;5009124;28;20100;-77
2022/09/10 00:24:56;;;;;;;15.30;7.72;;;;;;;15.27;97.70;100807.34;5009534;28;20103;-75
2022/09/10 00:27:22;;;;;;;17.05;8.05;;;;;;;15.16;98.79;100805.09;5010152;28;20064;-76
2022/09/10 00:29:54;;;;;;;13.85;6.85;;;;;;;15.23;98.84;100806.00;5010569;28;20029;-77
2022/09/10 00:32:20;;;;;;;19.10;10.05;;;;;;;15.37;98.13;100807.03;5010464;28;20088;-76
2022/09/10 00:34:49;;;;;;;11.90;6.97;;;;;;;15.49;97.48;100810.94;5010610;28;20025;-76
2022/09/10 00:37:15;;;;;;;12.43;7.63;;;;;;;15.58;96.55;100806.22;5010096;28;20439;-76
2022/09/10 00:39:41;;;;;;;12.57;7.57;;;;;;;15.60;96.61;100812.34;5010586;28;20190;-75
2022/09/10 00:42:10;;;;;;;13.93;6.72;;;;;;;15.61;96.61;100811.31;5010775;28;20467;-76
2022/09/10 00:44:38;;;;;;;19.63;6.80;;;;;;;15.61;96.29;100814.03;5009777;28;20458;-76
2022/09/10 00:47:26;;;;;;;19.98;11.77;;;;;;;15.52;96.88;100820.63;5000391;28;20042;-75
2022/09/10 00:49:59;;;;;;;20.73;8.70;;;;;;;15.50;96.90;100822.72;5006222;28;20034;-76
2022/09/10 00:52:26;;;;;;;21.85;8.63;;;;;;;15.37;97.43;100816.03;5000102;28;20058;-75
2022/09/10 00:54:52;;;;;;;13.32;8.07;;;;;;;15.15;99.08;100819.75;5010054;28;20545;-75
2022/09/10 00:57:21;;;;;;;13.32;9.48;;;;;;;15.18;99.64;100827.53;5009353;28;20033;-76
2022/09/10 00:59:52;;;;;;;18.25;9.85;;;;;;;15.28;99.70;100825.38;5009650;28;20021;-76
2022/09/10 01:02:17;;;;;;;10.85;7.68;;;;;;;15.34;98.78;100810.97;5010037;28;20220;-76
2022/09/10 01:04:44;;;;;;;15.77;8.77;;;;;;;15.29;100.00;100821.63;5009700;28;20018;-75
2022/09/10 01:07:11;;;;;;;16.92;9.45;;;;;;;15.08;100.00;100818.81;5009648;28;20018;-76
2022/09/10 01:09:38;;;;;;;15.10;10.13;;;;;;;15.14;100.00;100818.91;5009321;28;20052;-76
2022/09/10 01:12:19;;;;;;;22.55;9.63;;;;;;;15.24;100.00;100824.06;5010815;28;20025;-75
2022/09/10 01:15:16;;;;;;;14.30;6.35;;;;;;;15.31;100.00;100825.00;5009328;28;20033;-77
2022/09/10 01:18:02;;;;;;;13.32;7.70;;;;;;;15.41;100.00;100831.00;5009405;28;20080;-75
2022/09/10 01:20:50;;;;;;;15.60;7.95;;;;;;;15.47;99.62;100830.25;4999230;28;20117;-75
2022/09/10 01:23:46;;;;;;;11.65;6.43;;;;;;;15.46;98.96;100834.00;5001687;28;20034;-76
2022/09/10 01:26:49;;;;;;;11.98;5.68;;;;;;;15.40;98.63;100833.94;5009246;28;20029;-76
2022/09/10 01:29:51;;;;;;;15.95;7.30;;;;;;;15.40;98.64;100834.78;5008891;28;20026;-76
2022/09/10 01:32:26;;;;;;;12.40;6.90;;;;;;;15.44;98.92;100833.34;4993312;28;20081;-75
2022/09/10 01:35:36;;;;;;;17.48;6.63;;;;;;;15.36;98.97;100830.72;5010032;28;20033;-78
2022/09/10 01:38:07;;;;;;;12.98;7.72;;;;;;;15.36;98.81;100836.19;4989168;28;20022;-76
2022/09/10 01:40:33;;;;;;;12.88;6.55;;;;;;;15.26;99.11;100838.38;4990905;28;20049;-76
2022/09/10 01:43:01;;;;;;;16.20;9.55;;;;;;;15.28;99.62;100840.91;4990603;28;20042;-76
2022/09/10 01:45:28;;;;;;;17.88;8.55;;;;;;;15.31;99.65;100838.63;5011329;28;20021;-76
2022/09/10 01:48:10;;;;;;;14.98;9.35;;;;;;;15.45;98.83;100837.78;5011193;28;20113;-76
2022/09/10 01:50:59;;;;;;;20.33;10.15;;;;;;;15.31;99.46;100835.06;5011814;28;20033;-76
2022/09/10 01:54:02;;;;;;;14.38;9.02;;;;;;;15.42;99.43;100838.16;5011333;28;20014;-76
2022/09/10 01:57:06;;;;;;;10.93;7.85;;;;;;;15.53;98.64;100833.25;5011824;28;20053;-76
2022/09/10 01:59:49;;;;;;;16.13;9.20;;;;;;;15.45;98.44;100837.78;5010995;28;20034;-76
2022/09/10 02:02:21;;;;;;;9.18;7.53;;;;;;;15.56;98.66;100843.78;5011724;28;20022;-76
2022/09/10 02:04:49;;;;;;;12.40;6.43;;;;;;;15.40;98.04;100837.50;5011769;28;20108;-76
2022/09/10 02:07:18;;;;;;;14.68;6.78;;;;;;;15.45;98.34;100837.78;5011360;28;20036;-77
2022/09/10 02:09:44;;;;;;;12.38;7.32;;;;;;;15.36;98.71;100838.91;5001160;28;20068;-77
2022/09/10 02:12:17;;;;;;;14.43;7.82;;;;;;;15.52;98.30;100837.00;5009200;28;20018;-77
2022/09/10 02:14:45;;;;;;;16.77;7.30;;;;;;;15.56;97.65;100843.78;5011460;28;20024;-77
2022/09/10 02:17:10;;;;;;;12.48;7.22;;;;;;;15.46;97.87;100834.00;5011265;28;20439;-77
2022/09/10 02:19:36;;;;;;;20.27;8.77;;;;;;;15.34;99.10;100832.81;5011994;28;20057;-77
2022/09/10 02:22:02;;;;;;;15.20;7.70;;;;;;;15.32;99.11;100836.75;5010103;28;20048;-77
2022/09/10 02:24:28;;;;;;;13.20;8.23;;;;;;;15.33;99.16;100833.84;5011532;28;20048;-77
2022/09/10 02:26:53;;;;;;;15.00;8.77;;;;;;;15.26;99.63;100832.94;5011149;28;20030;-77
2022/09/10 02:29:18;;;;;;;20.30;9.43;;;;;;;15.38;99.38;100841.44;5010008;28;20026;-76
2022/09/10 02:31:44;;;;;;;19.88;9.85;;;;;;;15.42;99.32;100835.44;5009996;28;20033;-77
2022/09/10 02:34:10;;;;;;;17.65;8.65;;;;;;;15.47;98.58;100841.16;5010123;28;20037;-77
2022/09/10 02:36:36;;;;;;;13.10;8.05;;;;;;;15.43;98.70;100839.84;5001168;28;20387;-76
2022/09/10 02:39:03;;;;;;;11.35;7.85;;;;;;;15.24;99.56;100834.97;5009071;28;20028;-76
2022/09/10 02:41:32;;;;;;;26.95;13.45;;;;;;;15.24;99.87;100834.13;5008725;28;20072;-76
2022/09/10 02:44:00;;;;;;;12.20;8.90;;;;;;;15.34;99.72;100834.69;5009309;28;20025;-76
2022/09/10 02:46:27;;;;;;;14.63;8.98;;;;;;;15.26;100.00;100843.84;5009615;28;20479;-77
2022/09/10 02:48:53;;;;;;;13.65;9.18;;;;;;;15.25;100.00;100835.81;5009109;28;20029;-77
2022/09/10 02:51:20;;;;;;;13.18;8.60;;;;;;;15.31;100.00;100843.25;5008357;28;20391;-76
2022/09/10 02:53:45;;;;;;;19.45;11.52;;;;;;;15.35;100.00;100836.38;5008961;28;20032;-77
2022/09/10 02:56:12;;;;;;;16.05;9.02;;;;;;;15.46;99.77;100838.63;5011047;28;20025;-77
2022/09/10 02:58:37;;;;;;;13.07;7.93;;;;;;;15.34;99.75;100832.81;5012135;28;20030;-77
2022/09/10 03:01:17;;;;;;;15.02;8.48;;;;;;;15.48;99.26;100826.47;5012668;28;20029;-77
2022/09/10 03:03:42;;;;;;;21.35;11.00;;;;;;;15.37;99.76;100835.13;5012854;28;20022;-77
2022/09/10 03:06:08;;;;;;;17.35;9.65;;;;;;;15.33;100.00;100833.84;5012808;28;20471;-77
2022/09/10 03:08:34;;;;;;;32.03;10.63;;;;;;;15.20;100.00;100833.69;5012710;28;20029;-77
2022/09/10 03:11:00;;;;;;;22.05;10.20;;;;;;;15.32;99.93;100831.28;5012104;28;20034;-77
2022/09/10 03:13:26;;;;;;;14.48;8.30;;;;;;;15.47;99.46;100835.72;5012762;28;20021;-77
2022/09/10 03:15:57;;;;;;;16.75;12.02;;;;;;;15.37;100.00;100840.59;5012388;28;20044;-78
2022/09/10 03:18:23;;;;;;;18.55;10.68;;;;;;;15.44;99.95;100833.34;5011578;28;20478;-77
2022/09/10 03:20:49;;;;;;;19.02;11.18;;;;;;;15.46;99.75;100834.00;5012563;28;20036;-77
2022/09/10 03:23:15;;;;;;;10.10;7.68;;;;;;;15.45;99.54;100832.34;5011146;28;20037;-77
2022/09/10 03:25:40;;;;;;;13.63;8.65;;;;;;;15.52;99.30;100837.00;5011786;28;20073;-78
2022/09/10 03:28:06;;;;;;;15.38;8.90;;;;;;;15.54;98.88;100834.94;5011735;28;20033;-77
2022/09/10 03:30:32;;;;;;;17.30;8.88;;;;;;;15.61;98.42;100835.88;5011578;28;20529;-77
2022/09/10 03:32:57;;;;;;;14.27;7.95;;;;;;;15.65;97.83;100839.94;5013782;28;20018;-77
2022/09/10 03:35:23;;;;;;;14.70;10.05;;;;;;;15.53;98.24;100833.25;5012296;28;20030;-77
2022/09/10 03:37:49;;;;;;;13.25;8.50;;;;;;;15.42;98.88;100832.69;5012411;28;20402;-77
2022/09/10 03:40:14;;;;;;;17.98;10.27;;;;;;;15.37;98.73;100829.69;5012778;28;20033;-77
2022/09/10 03:42:41;;;;;;;13.45;9.05;;;;;;;15.42;98.61;100840.03;5012363;28;20083;-77
2022/09/10 03:45:07;;;;;;;10.68;6.72;;;;;;;15.43;98.95;100833.53;5012197;28;20053;-77
2022/09/10 03:47:32;;;;;;;24.70;11.30;;;;;;;15.35;99.36;100842.69;5012096;28;20061;-79
2022/09/10 03:49:58;;;;;;;19.75;10.00;;;;;;;15.39;99.20;100843.16;5012055;28;20085;-77
2022/09/10 03:52:25;;;;;;;18.73;8.77;;;;;;;15.42;98.90;100846.34;5011976;28;20068;-78
2022/09/10 03:54:51;;;;;;;16.52;8.38;;;;;;;15.41;98.78;100841.91;5011932;28;20030;-77
2022/09/10 03:57:16;;;;;;;19.83;9.40;;;;;;;15.50;98.33;100844.53;5011274;28;20029;-77
2022/09/10 03:59:42;;;;;;;20.73;10.30;;;;;;;15.54;97.59;100851.31;5012282;28;20030;-77
2022/09/10 04:02:08;;;;;;;15.10;6.47;;;;;;;15.53;98.04;100850.47;5015505;28;20032;-77
2022/09/10 04:04:36;;;;;;;16.27;10.00;;;;;;;15.37;98.07;100846.06;5015425;28;20096;-77
2022/09/10 04:07:02;;;;;;;11.18;7.85;;;;;;;15.41;97.95;100852.84;5015296;28;20052;-77
2022/09/10 04:09:27;;;;;;;19.15;8.93;;;;;;;15.50;98.25;100850.00;5015496;28;20045;-77
2022/09/10 04:11:53;;;;;;;19.83;11.45;;;;;;;15.45;98.24;100858.75;5013040;28;20029;-77
2022/09/10 04:14:18;;;;;;;12.50;9.00;;;;;;;15.55;97.82;100858.47;5015041;28;20116;-76
2022/09/10 04:16:43;;;;;;;11.13;7.93;;;;;;;15.52;97.42;100858.81;5014928;28;20101;-76
2022/09/10 04:19:09;;;;;;;13.50;7.65;;;;;;;15.54;97.41;100857.63;5014637;28;20132;-76
2022/09/10 04:21:34;;;;;;;18.33;9.20;;;;;;;15.51;97.93;100851.69;5014942;28;20415;-76
2022/09/10 04:24:00;;;;;;;16.05;7.55;;;;;;;15.54;97.25;100857.63;5014482;28;20056;-76
2022/09/10 04:26:26;;;;;;;16.52;8.85;;;;;;;15.58;96.78;100863.53;5014801;28;20026;-76
2022/09/10 04:28:52;;;;;;;15.13;6.82;;;;;;;15.56;96.63;100854.69;5015287;28;20037;-76
2022/09/10 04:31:18;;;;;;;20.48;9.73;;;;;;;15.53;96.76;100855.09;5018138;28;20033;-77
2022/09/10 04:33:44;;;;;;;12.88;8.40;;;;;;;15.57;96.35;100861.84;5016188;28;20021;-76
2022/09/10 04:36:11;;;;;;;15.57;8.50;;;;;;;15.52;96.63;100859.69;5014224;28;20017;-76
2022/09/10 04:38:39;;;;;;;13.63;7.22;;;;;;;15.50;96.06;100863.63;5014382;28;20088;-77
2022/09/10 04:41:05;;;;;;;16.63;8.93;;;;;;;15.49;96.16;100854.59;5014963;28;20033;-77
2022/09/10 04:43:30;;;;;;;14.13;8.50;;;;;;;15.50;96.00;100863.63;5015130;28;20021;-77
2022/09/10 04:45:55;;;;;;;12.57;8.50;;;;;;;15.50;95.51;100859.03;5014893;28;20482;-77
2022/09/10 04:48:22;;;;;;;12.45;8.25;;;;;;;15.49;95.39;100860.06;5008050;28;20067;-78
2022/09/10 04:50:48;;;;;;;17.67;8.90;;;;;;;15.45;95.28;100861.47;5007191;28;20023;-77
2022/09/10 04:53:14;;;;;;;14.80;7.85;;;;;;;15.42;95.01;100862.72;5010315;28;20104;-76
2022/09/10 04:55:42;;;;;;;12.65;7.88;;;;;;;15.37;95.21;100862.44;5016007;28;20033;-77
2022/09/10 04:58:08;;;;;;;13.15;9.30;;;;;;;15.37;95.33;100856.97;5017350;28;20022;-77
2022/09/10 05:00:34;;;;;;;12.65;8.18;;;;;;;15.39;95.11;100865.84;5016999;28;20018;-77
2022/09/10 05:02:59;;;;;;;19.42;9.40;;;;;;;15.32;95.96;100862.16;5016634;28;20497;-77
2022/09/10 05:05:25;;;;;;;18.85;9.73;;;;;;;15.10;97.11;100866.69;5014161;28;20026;-76
2022/09/10 05:07:52;;;;;;;27.80;11.57;;;;;;;15.09;98.35;100866.88;5013245;28;20446;-76
2022/09/10 05:10:20;;;;;;;29.20;15.10;;;;;;;15.04;98.28;100861.13;5013355;28;20018;-77
2022/09/10 05:12:46;;;;;;;40.17;15.27;;;;;;;14.99;98.68;100869.03;5012084;28;20131;-76
2022/09/10 05:15:12;;;;;;;26.08;14.65;;;;;;;15.06;98.90;100869.97;5013778;28;20022;-76
2022/09/10 05:17:38;;;;;;;10.43;9.02;;;;;;;15.08;99.10;100868.75;5013289;28;20044;-76
2022/09/10 05:20:06;;;;;;;26.25;14.52;;;;;;;15.06;99.40;100869.97;5013366;28;20080;-76
2022/09/10 05:22:33;;;;;;;20.38;12.02;;;;;;;15.02;99.19;100874.97;5012952;28;20104;-76
2022/09/10 05:24:59;;;;;;;18.80;11.45;;;;;;;15.24;98.81;100862.25;5013429;28;20024;-76
2022/09/10 05:27:24;;;;;;;19.90;12.15;;;;;;;15.19;98.21;100870.16;5013151;28;20026;-76
2022/09/10 05:29:49;;;;;;;25.85;14.43;;;;;;;14.98;99.22;100867.31;5012901;28;20037;-76
2022/09/10 05:32:15;;;;;;;23.75;14.32;;;;;;;14.90;100.00;100865.53;5013891;28;20025;-76
2022/09/10 05:34:40;;;;;;;20.25;10.60;;;;;;;14.90;100.00;100869.13;5013350;28;20034;-76
2022/09/10 05:37:07;;;;;;;16.00;9.20;;;;;;;15.02;99.71;100863.19;5012873;28;20083;-76
2022/09/10 05:39:33;;;;;;;15.50;11.30;;;;;;;15.08;99.50;100867.91;5012528;28;20479;-76
2022/09/10 05:41:59;;;;;;;17.55;11.20;;;;;;;15.09;99.04;100864.16;5006529;28;20027;-78
2022/09/10 05:44:25;;;;;;;15.80;9.10;;;;;;;15.04;99.56;100861.13;5013118;28;20052;-76
2022/09/10 05:46:50;;;;;;;22.52;12.82;;;;;;;15.10;99.07;100874.00;5012394;28;20026;-76
2022/09/10 05:49:16;;;;;;;15.38;10.63;;;;;;;14.93;99.72;100876.06;5012834;28;20056;-76
2022/09/10 05:51:41;;;;;;;17.67;10.45;;;;;;;14.91;100.00;100883.59;5013129;28;20034;-76
2022/09/10 05:54:07;;;;;;;20.00;10.30;;;;;;;14.97;100.00;100876.53;5012927;28;20030;-76
2022/09/10 05:56:33;;;;;;;23.27;10.30;;;;;;;15.14;100.00;100888.97;5004936;28;20025;-76
2022/09/10 05:58:59;;;;;;;19.80;10.07;;;;;;;15.16;99.92;100884.16;5012682;28;20025;-76
2022/09/10 06:01:24;;;;;;;14.07;9.02;;;;;;;15.22;99.76;100890.75;5012836;28;20018;-76
2022/09/10 06:03:50;;;;;;;21.02;12.23;;;;;;;15.18;100.00;100884.81;5013104;28;20025;-76
2022/09/10 06:06:16;;;;;;;24.42;11.07;;;;;;;15.25;99.90;100885.75;5013119;28;20018;-76
2022/09/10 06:08:42;;;;;;;10.15;8.25;;;;;;;15.27;99.73;100883.72;5013593;28;20034;-77
2022/09/10 06:11:09;;;;;;;26.00;11.18;;;;;;;15.31;100.00;100890.47;5016093;28;20060;-77
2022/09/10 06:13:38;;;;;;;14.30;7.97;;;;;;;15.38;99.85;100880.47;5015404;28;20117;-75
2022/09/10 06:16:03;;;;;;;12.93;8.95;;;;;;;15.46;100.00;100888.59;5015329;28;20033;-77
2022/09/10 06:18:30;;;;;;;15.35;11.02;;;;;;;15.56;99.57;100890.16;5012691;28;20030;-76
2022/09/10 06:21:05;;;;;;;20.13;9.00;;;;;;;15.46;99.55;100899.50;5012321;28;20422;-77
2022/09/10 06:23:31;;;;;;;17.80;9.07;;;;;;;15.50;99.90;100899.13;5011722;28;20060;-77
2022/09/10 06:26:03;;;;;;;16.45;8.60;;;;;;;15.59;99.47;100898.00;5014640;28;20025;-77
2022/09/10 06:28:29;;;;;;;13.98;8.95;;;;;;;15.70;100.00;100900.25;5005310;28;20113;-76
2022/09/10 06:30:54;;;;;;;14.45;8.60;;;;;;;15.76;99.74;100899.47;5004461;28;20041;-76
2022/09/10 06:33:20;;;;;;;12.98;7.78;;;;;;;15.67;100.00;100901.47;5004687;28;20021;-77
2022/09/10 06:36:12;;;;;;;12.05;7.05;;;;;;;15.68;99.85;100907.78;5008424;28;20021;-77
2022/09/10 06:38:38;;;;;;;18.30;9.15;;;;;;;15.68;99.67;100907.78;5007243;28;20456;-75
2022/09/10 06:41:11;;;;;;;13.95;7.75;;;;;;;15.78;99.99;100911.06;5012023;28;20022;-75
2022/09/10 06:43:40;;;;;;;14.18;7.78;;;;;;;15.81;100.00;100905.22;5012279;28;20115;-75
2022/09/10 06:46:12;;;;;;;15.35;7.95;;;;;;;15.95;99.34;100915.25;5013071;28;20022;-75
2022/09/10 06:48:39;;;;;;;10.75;8.13;;;;;;;16.01;99.19;100914.47;4994051;28;20026;-76
2022/09/10 06:51:07;;;;;;;12.85;10.00;;;;;;;16.09;99.16;100909.94;5010912;28;20025;-76
2022/09/10 06:53:33;;;;;;;12.38;7.65;;;;;;;16.26;98.80;100916.84;5004785;28;20014;-71
2022/09/10 06:55:59;;;;;;;12.77;8.38;;;;;;;16.29;98.97;100916.44;5008215;28;20041;-72
2022/09/10 06:58:25;;;;;;;13.27;8.63;;;;;;;16.27;98.10;100919.38;5004601;28;20018;-72
2022/09/10 07:00:51;;;;;;;12.13;7.88;;;;;;;16.36;97.47;100920.09;5001359;28;20353;-72
2022/09/10 07:03:19;;;;;;;12.45;8.07;;;;;;;16.34;98.05;100914.00;5004735;28;20056;-73
2022/09/10 07:05:45;;;;;;;13.57;7.60;;;;;;;16.41;98.26;100914.91;4999302;28;20037;-74
2022/09/10 07:08:21;;;;;;;17.08;8.13;;;;;;;16.40;98.29;100917.84;5007739;28;20034;-72
2022/09/10 07:10:46;;;;;;;16.00;7.68;;;;;;;16.36;97.67;100914.63;5001348;28;20034;-72
2022/09/10 07:13:12;;;;;;;11.45;8.15;;;;;;;16.15;98.50;100920.94;5011712;28;20057;-73
2022/09/10 07:15:48;;;;;;;10.50;7.97;;;;;;;16.31;97.63;100924.47;5010339;28;20120;-73
2022/09/10 07:18:13;;;;;;;13.15;7.43;;;;;;;16.42;97.84;100922.03;5010246;28;20048;-72
2022/09/10 07:20:42;;;;;;;14.60;8.38;;;;;;;16.37;98.50;100923.69;5010069;28;20037;-73
2022/09/10 07:23:16;;;;;;;15.30;7.32;;;;;;;16.65;96.28;100931.94;5005718;28;20038;-73
2022/09/10 07:25:41;;;;;;;9.90;7.55;;;;;;;16.67;96.28;100929.84;5008609;28;20060;-74
2022/09/10 07:28:12;;;;;;;10.43;6.88;;;;;;;16.93;95.41;100930.09;5007733;28;20038;-75
2022/09/10 07:30:42;;;;;;;18.38;8.43;;;;;;;16.89;96.14;100938.91;5002226;28;20022;-74
2022/09/10 07:33:09;;;;;;;16.70;7.88;;;;;;;16.89;94.72;100931.56;5007506;28;20037;-75
2022/09/10 07:35:36;;;;;;;15.82;8.07;;;;;;;16.98;94.62;100933.09;5005358;28;20017;-74
2022/09/10 07:38:06;;;;;;;15.45;7.97;;;;;;;16.77;94.49;100933.97;4997630;28;20109;-73
2022/09/10 07:40:32;;;;;;;15.93;8.07;;;;;;;16.96;95.40;100928.88;5008946;28;20018;-73
2022/09/10 07:42:58;;;;;;;19.38;9.40;;;;;;;16.89;95.30;100928.84;5009206;28;20033;-73
2022/09/10 07:45:25;;;;;;;13.27;7.80;;;;;;;17.02;94.52;100933.56;5008620;28;20030;-74
2022/09/10 07:47:50;;;;;;;13.38;8.57;;;;;;;17.08;93.55;100933.59;5009131;28;20025;-73
2022/09/10 07:50:16;;;;;;;16.98;9.48;;;;;;;17.04;94.37;100937.78;5008734;28;20014;-74
2022/09/10 07:52:42;;;;;;;20.20;9.70;;;;;;;17.17;93.38;100938.91;5009909;28;20013;-75
2022/09/10 07:55:08;;;;;;;17.50;10.38;;;;;;;17.11;93.94;100937.81;5008056;28;20018;-74
2022/09/10 07:57:36;;;;;;;18.27;10.10;;;;;;;17.13;93.99;100941.19;5008667;28;20379;-76
2022/09/10 08:00:13;;;;;;;13.50;9.35;;;;;;;17.23;94.20;100940.84;5008621;28;20037;-75
2022/09/10 08:02:40;;;;;;;17.63;10.93;;;;;;;17.27;94.25;100947.59;5008943;28;20018;-74
2022/09/10 08:05:07;;;;;;;16.10;9.38;;;;;;;17.22;94.99;100944.66;5008296;28;20030;-73
2022/09/10 08:07:32;;;;;;;18.33;10.55;;;;;;;17.23;92.64;100951.81;5008459;28;20030;-74
2022/09/10 08:09:57;;;;;;;16.88;11.32;;;;;;;17.20;94.32;100946.72;5008199;28;20092;-74
2022/09/10 08:12:24;;;;;;;18.42;11.38;;;;;;;17.21;92.33;100953.88;5005656;28;20097;-74
2022/09/10 08:14:51;;;;;;;15.90;10.75;;;;;;;17.34;92.44;100953.97;5000439;28;20033;-74
2022/09/10 08:17:16;;;;;;;20.35;11.43;;;;;;;17.34;92.25;100956.69;5006191;28;20048;-73
2022/09/10 08:19:42;;;;;;;18.42;11.73;;;;;;;17.27;93.18;100958.53;4998918;28;20018;-73
2022/09/10 08:22:08;;;;;;;15.40;10.88;;;;;;;17.58;91.50;100956.22;5004929;28;20025;-75
2022/09/10 08:24:33;;;;;;;19.15;13.10;;;;;;;16.95;93.28;100965.47;4995166;28;20040;-73
2022/09/10 08:26:59;;;;;;;17.52;12.88;;;;;;;17.37;91.95;100964.53;4998303;28;20026;-75
2022/09/10 08:29:24;;;;;;;21.58;12.15;;;;;;;17.53;90.61;100969.66;4999295;28;20390;-75
2022/09/10 08:31:50;;;;;;;26.13;13.00;;;;;;;17.57;90.42;100975.59;5000849;28;20034;-73
2022/09/10 08:34:15;;;;;;;19.42;13.18;;;;;;;17.56;91.24;100984.84;5001902;28;20391;-75
2022/09/10 08:36:41;;;;;;;19.77;14.23;;;;;;;17.50;91.02;100986.50;5001457;28;20021;-74
2022/09/10 08:39:06;;;;;;;23.60;13.75;;;;;;;17.45;93.47;100989.00;5002152;28;20018;-73
2022/09/10 08:41:45;;;;;;;19.90;13.15;;;;;;;17.67;91.72;100992.53;4998827;28;20018;-72
2022/09/10 08:44:20;;;;;;;18.10;11.98;;;;;;;18.21;89.42;100990.91;5000505;28;20108;-74
2022/09/10 08:47:31;;;;;;;19.45;14.70;;;;;;;18.27;88.83;100992.81;5004938;28;20018;-76
2022/09/10 08:50:08;;;;;;;21.23;14.75;;;;;;;17.93;89.63;100997.31;5005980;28;20097;-74
2022/09/10 08:53:24;;;;;;;19.75;14.90;;;;;;;18.41;88.52;101003.59;5007656;28;20088;-74
2022/09/10 08:55:56;;;;;;;20.35;15.60;;;;;;;18.53;87.15;100994.78;4978457;28;20045;-74
2022/09/10 08:58:34;;;;;;;25.67;14.70;;;;;;;18.45;86.33;101001.28;5006799;28;20014;-74
2022/09/10 09:01:03;;;;;;;23.52;16.70;;;;;;;18.57;86.67;100998.78;5002771;28;20110;-73
2022/09/10 09:03:35;;;;;;;26.58;16.95;;;;;;;18.00;89.63;101006.41;4986985;28;20024;-72
2022/09/10 09:06:04;;;;;;;23.17;15.30;;;;;;;18.36;87.94;100994.31;5005834;28;20026;-72
2022/09/10 09:08:40;;;;;;;21.95;14.95;;;;;;;18.34;89.11;100993.69;5006084;28;20022;-75
2022/09/10 09:11:16;;;;;;;24.23;17.52;;;;;;;18.29;89.42;101001.66;5007715;28;20446;-73
2022/09/10 09:14:08;;;;;;;22.63;14.63;;;;;;;18.82;87.76;101007.31;5007802;28;20021;-74
2022/09/10 09:16:33;;;;;;;20.80;16.25;;;;;;;18.80;87.37;100998.44;5006713;28;20387;-73
2022/09/10 09:19:08;;;;;;;24.60;15.30;;;;;;;18.86;87.13;101003.09;5007626;28;20050;-74
2022/09/10 09:21:45;;;;;;;23.40;16.20;;;;;;;19.05;86.40;100999.53;5007986;28;20029;-71
2022/09/10 09:24:17;;;;;;;17.45;13.48;;;;;;;19.37;85.03;101005.22;5006947;28;20051;-72
2022/09/10 09:26:46;;;;;;;26.73;14.57;;;;;;;19.15;85.11;101012.81;5006081;28;20052;-72
2022/09/10 09:29:27;;;;;;;22.13;15.07;;;;;;;19.24;82.44;101001.41;5006789;28;20025;-72
2022/09/10 09:31:57;;;;;;;22.48;14.57;;;;;;;19.28;84.47;101006.47;5005670;28;20554;-72
2022/09/10 09:34:34;;;;;;;20.70;15.07;;;;;;;19.43;81.75;101009.81;5001542;28;20041;-71
2022/09/10 09:37:12;;;;;;;19.33;16.13;;;;;;;19.18;82.45;101013.25;5005644;28;20040;-73
2022/09/10 09:39:42;;;;;;;26.55;16.08;;;;;;;19.40;83.80;101015.75;5007544;28;20374;-73
2022/09/10 09:42:18;;;;;;;21.70;15.15;;;;;;;19.66;83.09;101003.91;5006286;28;20026;-73
2022/09/10 09:45:02;;;;;;;22.33;16.20;;;;;;;19.65;83.30;101005.81;5006276;28;20028;-73
2022/09/10 09:47:27;;;;;;;21.30;17.50;;;;;;;19.79;81.75;101001.97;5004504;28;20029;-72
2022/09/10 09:49:53;;;;;;;23.60;17.45;;;;;;;19.53;81.88;101004.75;5007493;28;20021;-71
2022/09/10 09:52:21;;;;;;;25.27;16.60;;;;;;;19.58;79.17;101007.75;5004703;28;20065;-72
2022/09/10 09:55:00;;;;;;;27.67;15.30;;;;;;;19.83;78.37;100999.66;5004701;28;20022;-73
2022/09/10 09:57:28;;;;;;;25.65;15.48;;;;;;;20.22;78.46;101006.91;5007043;28;20084;-71
2022/09/10 09:59:54;;;;;;;20.67;15.40;;;;;;;19.82;78.33;101002.59;5010573;28;20026;-72
2022/09/10 10:02:22;;;;;;;20.17;14.68;;;;;;;19.90;78.08;101005.13;5010478;28;20029;-71
2022/09/10 10:05:24;;;;;;;20.55;15.43;;;;;;;19.66;79.68;101004.75;5005373;28;20030;-71
2022/09/10 10:07:49;;;;;;;23.50;14.40;;;;;;;20.18;77.86;101013.88;5001297;28;20030;-70
2022/09/10 10:10:26;;;;;;;27.70;14.57;;;;;;;20.18;76.01;101011.13;4992059;28;20029;-71
2022/09/10 10:12:53;;;;;;;18.42;14.15;;;;;;;20.35;76.89;101008.75;5005846;28;20022;-72
2022/09/10 10:15:36;;;;;;;22.02;13.85;;;;;;;20.73;75.29;101011.50;5009480;28;20075;-71
2022/09/10 10:18:21;;;;;;;17.17;13.52;;;;;;;20.47;76.27;101014.41;5009881;28;20030;-71
2022/09/10 10:20:48;;;;;;;18.40;14.25;;;;;;;20.40;75.13;101010.81;5005471;28;20042;-71
2022/09/10 10:23:38;;;;;;;23.13;14.93;;;;;;;19.92;77.39;101008.50;5001986;28;20029;-72
2022/09/10 10:26:19;;;;;;;22.08;14.13;;;;;;;19.89;78.37;101014.44;5007534;28;20022;-70
2022/09/10 10:28:51;;;;;;;18.08;12.65;;;;;;;20.10;78.02;101014.16;5009346;28;20032;-71
2022/09/10 10:31:18;;;;;;;19.05;13.63;;;;;;;20.09;76.89;101008.88;5009299;28;20124;-71
2022/09/10 10:34:08;;;;;;;22.58;14.15;;;;;;;19.99;77.09;101021.16;4999675;28;20075;-70
2022/09/10 10:36:51;;;;;;;18.38;13.40;;;;;;;20.05;78.22;101016.69;5009478;28;20053;-71
2022/09/10 10:39:23;;;;;;;20.20;13.18;;;;;;;19.94;77.18;101012.69;5009310;28;20022;-73
2022/09/10 10:42:07;;;;;;;16.42;11.68;;;;;;;20.08;76.10;101016.25;5002738;28;20057;-71
2022/09/10 10:44:38;;;;;;;22.65;12.63;;;;;;;20.29;76.82;101015.13;5003218;28;20025;-71
2022/09/10 10:47:36;;;;;;;17.58;10.77;;;;;;;20.57;76.99;101017.53;5008439;28;20036;-71
2022/09/10 10:50:17;;;;;;;17.38;11.00;;;;;;;20.62;76.75;101009.47;4989203;28;20029;-72
2022/09/10 10:53:07;;;;;;;16.50;11.55;;;;;;;20.47;75.86;101011.66;5009322;28;20098;-72
2022/09/10 10:55:40;;;;;;;13.85;10.75;;;;;;;20.65;75.15;101010.94;5008466;28;20403;-71
2022/09/10 10:58:37;;;;;;;13.85;10.63;;;;;;;20.88;74.28;101007.59;5007968;28;20089;-71
2022/09/10 11:01:23;;;;;;;17.95;10.70;;;;;;;21.16;71.67;101005.25;5008485;28;20026;-71
2022/09/10 11:04:21;;;;;;;17.70;11.80;;;;;;;21.07;71.49;101001.09;5002147;28;20498;-72
2022/09/10 11:06:56;;;;;;;16.88;10.20;;;;;;;21.05;72.29;101003.22;5008955;28;20049;-71
2022/09/10 11:09:31;;;;;;;18.98;12.57;;;;;;;20.54;73.60;101007.00;5005812;28;20033;-71
2022/09/10 11:12:06;;;;;;;19.20;12.10;;;;;;;20.53;73.47;101002.53;5008194;28;20022;-71
2022/09/10 11:14:52;;;;;;;17.00;12.38;;;;;;;20.98;71.44;100996.94;5008384;28;20014;-71
2022/09/10 11:17:38;;;;;;;19.50;11.35;;;;;;;21.15;70.49;100987.06;5005063;28;20018;-71
2022/09/10 11:20:29;;;;;;;16.27;10.77;;;;;;;21.48;69.19;100991.44;5008297;28;20026;-71
2022/09/10 11:23:32;;;;;;;15.63;10.15;;;;;;;21.91;68.73;100986.72;5004404;28;20022;-70
2022/09/10 11:26:20;;;;;;;20.60;13.02;;;;;;;21.74;68.73;100985.66;5006343;28;20022;-71
2022/09/10 11:28:58;;;;;;;19.50;10.80;;;;;;;21.64;67.96;100983.41;5004684;28;20029;-71